Time;durP1;ratioP1;P1;durP2;ratioP2;P2;SDS_P1;SDS_P2;PMS_P1;PMS_P2;Temp;Humidity;BMP_temperature;BMP_pressure;BME280_temperature;BME280_humidity;BME280_pressure;Samples;Min_cycle;Max_cycle;Signal;HPM_P1;HPM_P2
2022/09/03 00:01:07;;;;;;;;;5.60;4.80;;;;;18.71;41.11;99527.09;4996956;28;8844;-84
2022/09/03 00:03:35;;;;;;;;;3.00;3.00;;;;;18.70;41.52;99528.09;4996730;28;8864;-84
2022/09/03 00:06:04;;;;;;;;;5.40;4.60;;;;;18.70;41.35;99524.56;4997352;28;8974;-84
2022/09/03 00:08:32;;;;;;;;;5.20;4.00;;;;;18.69;41.49;99529.13;4996678;28;8824;-84
2022/09/03 00:11:01;;;;;;;;;3.20;3.00;;;;;18.66;41.21;99524.09;4997221;28;8853;-84
2022/09/03 00:13:28;;;;;;;;;1.60;1.60;;;;;18.64;41.26;99522.59;4996794;28;8832;-84
2022/09/03 00:15:56;;;;;;;;;4.40;4.00;;;;;18.62;41.50;99525.50;4996620;28;8843;-84
2022/09/03 00:18:24;;;;;;;;;3.20;3.20;;;;;18.60;41.33;99524.00;4996351;28;8851;-84
2022/09/03 00:20:52;;;;;;;;;4.00;4.00;;;;;18.60;41.59;99526.69;4996523;28;8828;-84
2022/09/03 00:23:19;;;;;;;;;3.40;3.40;;;;;18.57;41.43;99524.34;4996416;28;9498;-84
2022/09/03 00:25:47;;;;;;;;;4.00;4.00;;;;;18.54;41.30;99525.56;4996737;28;8833;-84
2022/09/03 00:28:15;;;;;;;;;3.00;3.00;;;;;18.52;41.33;99524.06;4996185;28;8989;-84
2022/09/03 00:30:43;;;;;;;;;3.40;3.40;;;;;18.48;41.64;99523.59;4996356;28;8933;-84
2022/09/03 00:33:12;;;;;;;;;3.80;3.80;;;;;18.45;41.82;99523.13;4996513;28;8916;-84
2022/09/03 00:35:40;;;;;;;;;4.00;4.00;;;;;18.44;41.41;99519.56;4996154;28;8959;-84
2022/09/03 00:38:07;;;;;;;;;4.00;4.00;;;;;18.43;41.84;99522.47;4996159;28;8843;-84
2022/09/03 00:40:35;;;;;;;;;3.20;3.20;;;;;18.40;41.61;99520.97;4995966;28;8832;-84
2022/09/03 00:43:03;;;;;;;;;4.80;4.00;;;;;18.39;41.62;99519.28;4996011;28;8872;-84
2022/09/03 00:45:31;;;;;;;;;3.00;3.00;;;;;18.39;41.54;99522.00;4995855;28;8856;-84
2022/09/03 00:47:59;;;;;;;;;1.00;1.00;;;;;18.38;41.83;99525.69;4996047;28;8848;-84
2022/09/03 00:50:28;;;;;;;;;3.00;3.00;;;;;18.37;41.59;99515.09;4995460;28;8832;-84
2022/09/03 00:52:56;;;;;;;;;4.00;4.00;;;;;18.33;41.63;99513.78;4995948;28;8859;-84
2022/09/03 00:55:24;;;;;;;;;2.00;2.00;;;;;18.30;41.41;99512.28;4995648;28;9003;-84
2022/09/03 00:57:51;;;;;;;;;4.40;4.40;;;;;18.29;41.78;99520.53;4995739;28;8915;-84
2022/09/03 01:00:19;;;;;;;;;3.00;3.00;;;;;18.27;42.00;99519.84;4995291;28;8945;-84
2022/09/03 01:02:47;;;;;;;;;3.00;3.00;;;;;18.27;42.14;99525.25;4995475;28;8873;-84
2022/09/03 01:05:15;;;;;;;;;3.00;3.00;;;;;18.22;41.93;99519.56;4995019;28;8855;-84
2022/09/03 01:07:45;;;;;;;;;3.00;3.00;;;;;18.17;42.06;99525.50;4994654;28;8836;-84
2022/09/03 01:10:12;;;;;;;;;3.60;3.60;;;;;18.13;41.89;99515.28;4994524;28;8838;-84
2022/09/03 01:12:40;;;;;;;;;3.00;3.00;;;;;18.11;42.09;99519.97;4995104;28;8827;-84
2022/09/03 01:15:09;;;;;;;;;3.00;3.00;;;;;18.09;41.86;99516.63;4994743;28;8848;-84
2022/09/03 01:17:37;;;;;;;;;1.00;1.00;;;;;18.06;42.46;99523.22;4996309;28;8837;-84
2022/09/03 01:20:04;;;;;;;;;1.80;1.80;;;;;18.03;42.16;99517.34;4996157;28;8860;-84
2022/09/03 01:22:32;;;;;;;;;4.80;4.00;;;;;18.01;42.14;99525.63;4996814;28;8942;-84
2022/09/03 01:25:00;;;;;;;;;3.60;3.20;;;;;17.98;42.43;99520.59;4995902;28;8953;-84
2022/09/03 01:27:28;;;;;;;;;4.00;4.00;;;;;17.97;42.34;99523.44;4995682;28;8860;-84
2022/09/03 01:29:57;;;;;;;;;1.00;1.00;;;;;17.93;42.87;99528.34;4996626;28;8844;-84
2022/09/03 01:32:26;;;;;;;;;3.00;3.00;;;;;17.89;42.27;99526.19;4995493;28;8840;-84
2022/09/03 01:34:54;;;;;;;;;3.00;3.00;;;;;17.83;42.53;99519.69;4995621;28;8857;-84
2022/09/03 01:37:22;;;;;;;;;2.20;2.20;;;;;17.78;42.60;99519.34;4996143;28;8844;-84
2022/09/03 01:39:50;;;;;;;;;4.80;3.40;;;;;17.77;42.81;99519.56;4995989;28;9499;-84
2022/09/03 01:42:16;;;;;;;;;3.00;1.00;;;;;17.71;42.67;99522.97;4996093;28;8837;-84
2022/09/03 01:44:49;;;;;;;;;3.00;3.00;;;;;17.64;42.86;99524.69;4996384;28;8844;-84
2022/09/03 01:47:19;;;;;;;;;3.80;3.80;;;;;17.59;43.12;99521.66;5002426;28;8824;-84
2022/09/03 01:49:47;;;;;;;;;4.00;4.00;;;;;17.54;43.11;99522.19;5002805;28;8844;-84
2022/09/03 01:52:14;;;;;;;;;1.00;1.00;;;;;17.46;43.46;99513.34;4996707;28;8921;-84
2022/09/03 01:54:42;;;;;;;;;3.00;3.00;;;;;17.35;43.13;99511.84;4995193;28;8840;-84
2022/09/03 01:57:10;;;;;;;;;4.00;4.00;;;;;17.26;43.18;99506.66;4994763;28;8836;-84
2022/09/03 01:59:58;;;;;;;;;1.00;1.00;;;;;17.13;43.73;99509.91;4994282;28;8982;-84
2022/09/03 02:02:25;;;;;;;;;3.25;3.25;;;;;17.02;43.57;99514.84;4994220;28;8854;-84
2022/09/03 02:04:53;;;;;;;;;3.50;3.00;;;;;16.91;44.24;99512.50;4994181;28;8847;-84
2022/09/03 02:07:21;;;;;;;;;2.00;2.00;;;;;16.80;43.79;99513.69;4994267;28;9518;-84
2022/09/03 02:09:49;;;;;;;;;4.00;4.00;;;;;16.71;44.32;99508.53;4994164;28;9615;-84
2022/09/03 02:12:17;;;;;;;;;3.25;3.25;;;;;16.63;44.48;99509.38;4993909;28;8897;-84
2022/09/03 02:14:45;;;;;;;;;3.00;3.00;;;;;16.55;44.66;99506.69;4997898;28;8828;-84
2022/09/03 02:17:13;;;;;;;;;3.00;3.00;;;;;16.47;44.27;99506.72;4997470;28;8839;-84
2022/09/03 02:19:41;;;;;;;;;3.00;3.00;;;;;16.42;44.57;99519.00;4997228;28;8962;-84
2022/09/03 02:22:09;;;;;;;;;3.00;3.00;;;;;16.37;44.87;99515.97;4997506;28;8848;-84
2022/09/03 02:24:37;;;;;;;;;3.00;3.00;;;;;16.34;44.47;99519.78;4997396;28;8990;-84
2022/09/03 02:27:05;;;;;;;;;3.50;3.50;;;;;16.32;44.50;99516.44;4997486;28;8840;-84
2022/09/03 02:29:33;;;;;;;;;4.00;4.00;;;;;16.27;44.44;99513.41;4998257;28;8876;-84
2022/09/03 02:32:00;;;;;;;;;3.50;3.00;;;;;16.21;45.12;99513.25;4997659;28;8855;-83
2022/09/03 02:34:28;;;;;;;;;3.00;3.00;;;;;16.23;44.71;99512.06;4997167;28;8840;-84
2022/09/03 02:36:56;;;;;;;;;3.75;3.25;;;;;16.26;44.83;99509.03;4997180;28;8947;-84
2022/09/03 02:39:24;;;;;;;;;1.50;1.50;;;;;16.28;44.87;99512.41;4997283;28;8824;-84
2022/09/03 02:41:51;;;;;;;;;3.00;3.00;;;;;16.26;44.57;99514.41;4997223;28;8851;-84
2022/09/03 02:44:22;;;;;;;;;3.00;3.00;;;;;16.19;45.48;99513.41;4996960;28;8905;-84
2022/09/03 02:46:51;;;;;;;;;3.00;3.00;;;;;16.12;44.93;99508.88;4997357;28;8840;-84
2022/09/03 02:49:19;;;;;;;;;3.00;2.00;;;;;16.04;45.02;99511.56;4997171;28;8829;-84
2022/09/03 02:51:47;;;;;;;;;3.00;3.00;;;;;15.98;45.05;99511.38;4997118;28;8863;-84
2022/09/03 02:54:14;;;;;;;;;3.00;3.00;;;;;15.91;45.34;99505.03;4997229;28;8851;-84
2022/09/03 02:56:48;;;;;;;;;1.00;1.00;;;;;15.84;45.20;99504.00;4997046;28;8840;-84
2022/09/03 02:59:16;;;;;;;;;3.00;3.00;;;;;15.79;45.66;99509.03;4997176;28;8892;-84
2022/09/03 03:01:44;;;;;;;;;3.50;3.25;;;;;15.72;45.36;99506.16;4996973;28;8828;-84
2022/09/03 03:04:13;;;;;;;;;0.00;0.00;;;;;15.68;45.58;99503.94;4997175;28;9126;-84
2022/09/03 03:06:41;;;;;;;;;2.00;2.00;;;;;15.61;45.60;99503.78;4997177;28;8862;-84
2022/09/03 03:09:14;;;;;;;;;1.00;1.00;;;;;15.55;45.84;99503.59;4997293;28;8918;-84
2022/09/03 03:11:41;;;;;;;;;3.00;3.00;;;;;15.49;45.59;99505.06;4997502;28;8968;-84
2022/09/03 03:14:09;;;;;;;;;1.00;1.00;;;;;15.44;46.03;99503.91;4997672;28;8974;-84
2022/09/03 03:16:37;;;;;;;;;1.00;1.00;;;;;15.39;45.76;99500.88;4997320;28;8851;-84
2022/09/03 03:19:05;;;;;;;;;1.00;1.00;;;;;15.33;45.81;99505.03;4997609;28;8812;-84
2022/09/03 03:21:32;;;;;;;;;3.50;3.50;;;;;15.28;46.18;99511.88;4996831;28;9013;-84
2022/09/03 03:24:00;;;;;;;;;3.75;3.75;;;;;15.23;45.88;99498.09;4996393;28;8963;-84
2022/09/03 03:26:28;;;;;;;;;2.00;1.50;;;;;15.21;46.11;99500.09;4996499;28;8836;-84
2022/09/03 03:28:56;;;;;;;;;3.50;3.00;;;;;15.18;46.31;99501.25;4997347;28;8937;-84
2022/09/03 03:31:24;;;;;;;;;3.00;2.50;;;;;15.16;46.56;99491.72;4997586;28;8864;-84
2022/09/03 03:33:52;;;;;;;;;3.75;3.00;;;;;15.14;46.35;99496.38;4997019;28;8843;-84
2022/09/03 03:36:20;;;;;;;;;3.75;3.75;;;;;15.11;46.35;99500.22;5001789;28;8837;-84
2022/09/03 03:38:48;;;;;;;;;3.00;3.00;;;;;15.08;46.26;99492.50;5014175;28;8859;-84
2022/09/03 03:41:16;;;;;;;;;3.50;3.50;;;;;15.07;46.38;99496.19;5005653;28;8820;-84
2022/09/03 03:43:43;;;;;;;;;3.00;3.00;;;;;15.06;46.76;99501.72;4996569;28;8840;-84
2022/09/03 03:46:12;;;;;;;;;3.25;3.25;;;;;15.06;46.28;99490.97;4996369;28;8874;-84
2022/09/03 03:48:40;;;;;;;;;2.50;2.50;;;;;15.08;46.25;99488.97;4996249;28;8821;-84
2022/09/03 03:51:08;;;;;;;;;2.00;2.00;;;;;15.09;46.85;99501.41;4996787;28;8852;-84
2022/09/03 03:53:36;;;;;;;;;3.00;3.00;;;;;15.09;46.58;99490.69;4996189;28;8850;-84
2022/09/03 03:56:04;;;;;;;;;3.50;3.00;;;;;15.08;45.95;99492.50;4996214;28;9455;-84
2022/09/03 03:58:32;;;;;;;;;2.00;2.00;;;;;15.09;45.82;99485.31;4996691;28;8933;-84
2022/09/03 04:00:59;;;;;;;;;3.00;3.00;;;;;15.07;45.90;99493.50;4996174;28;8848;-84
2022/09/03 04:03:28;;;;;;;;;3.25;3.25;;;;;15.06;46.04;99482.94;4997371;28;8868;-84
2022/09/03 04:05:56;;;;;;;;;3.00;3.00;;;;;15.05;46.46;99484.78;4996441;28;8955;-84
2022/09/03 04:08:23;;;;;;;;;3.25;3.25;;;;;15.03;45.99;99476.03;4996108;28;8883;-84
2022/09/03 04:10:51;;;;;;;;;4.00;3.00;;;;;15.03;46.78;99469.84;4996028;28;8982;-84
2022/09/03 04:13:19;;;;;;;;;3.00;3.00;;;;;15.02;46.30;99474.38;4996090;28;8955;-84
2022/09/03 04:15:47;;;;;;;;;5.00;3.50;;;;;15.02;46.21;99465.50;4996007;28;8967;-84
2022/09/03 04:18:15;;;;;;;;;1.00;1.00;;;;;15.00;46.48;99465.66;4995872;28;8962;-84
2022/09/03 04:20:43;;;;;;;;;3.00;3.00;;;;;14.99;46.59;99468.50;4995798;28;8967;-84
2022/09/03 04:23:11;;;;;;;;;1.00;1.00;;;;;14.94;46.18;99466.28;4996410;28;8848;-84
2022/09/03 04:25:40;;;;;;;;;4.00;3.75;;;;;14.94;46.20;99476.19;4996246;28;8860;-84
2022/09/03 04:28:08;;;;;;;;;2.50;2.50;;;;;14.92;46.72;99464.78;4996210;28;8959;-83
2022/09/03 04:30:35;;;;;;;;;3.00;3.00;;;;;14.90;47.05;99464.94;4996266;28;8844;-84
2022/09/03 04:33:03;;;;;;;;;3.50;3.00;;;;;14.90;46.57;99464.09;4995809;28;8836;-84
2022/09/03 04:35:32;;;;;;;;;3.00;3.00;;;;;14.88;47.07;99468.78;4995712;28;8868;-84
2022/09/03 04:38:03;;;;;;;;;1.00;1.00;;;;;14.87;46.90;99464.44;4995978;28;8836;-84
2022/09/03 04:40:30;;;;;;;;;3.00;3.00;;;;;14.85;46.96;99466.41;4996104;28;8959;-84
2022/09/03 04:42:59;;;;;;;;;3.00;3.00;;;;;14.86;47.00;99458.22;4995919;28;8983;-84
2022/09/03 04:45:27;;;;;;;;;4.00;3.00;;;;;14.92;47.03;99460.25;4995606;28;8959;-84
2022/09/03 04:47:55;;;;;;;;;6.00;6.00;;;;;15.01;46.85;99451.25;4996013;28;8902;-84
2022/09/03 04:50:24;;;;;;;;;3.00;3.00;;;;;15.10;46.31;99454.81;4995709;28;8840;-84
2022/09/03 04:52:51;;;;;;;;;2.50;2.50;;;;;15.18;46.36;99458.34;4996163;28;8832;-84
2022/09/03 04:55:19;;;;;;;;;4.00;4.00;;;;;15.23;46.08;99450.66;4995856;28;8971;-84
2022/09/03 04:57:47;;;;;;;;;3.25;3.00;;;;;15.33;46.15;99450.53;4996005;28;8964;-84
2022/09/03 05:00:17;;;;;;;;;3.00;3.00;;;;;15.43;45.86;99453.91;4995413;28;8855;-84
2022/09/03 05:02:47;;;;;;;;;3.75;3.00;;;;;15.53;46.16;99455.44;4995569;28;8836;-84
2022/09/03 05:05:19;;;;;;;;;3.00;3.00;;;;;15.63;45.50;99455.31;4995035;28;8901;-84
2022/09/03 05:07:47;;;;;;;;;3.50;3.50;;;;;15.71;45.41;99452.63;5000734;28;8946;-84
2022/09/03 05:10:19;;;;;;;;;1.00;1.00;;;;;15.79;45.88;99461.50;5002220;28;8836;-84
2022/09/03 05:12:47;;;;;;;;;3.25;3.00;;;;;15.86;45.37;99459.00;5001502;28;8911;-84
2022/09/03 05:15:14;;;;;;;;;1.00;1.00;;;;;15.92;45.50;99455.66;4995731;28;8824;-84
2022/09/03 05:17:42;;;;;;;;;0.00;0.00;;;;;16.00;45.49;99450.28;4995763;28;8967;-83
2022/09/03 05:20:10;;;;;;;;;3.00;2.00;;;;;16.07;45.01;99452.13;4995096;28;8899;-84
2022/09/03 05:22:38;;;;;;;;;3.75;3.00;;;;;16.15;44.95;99452.13;4995594;28;8821;-84
2022/09/03 05:25:05;;;;;;;;;2.50;1.00;;;;;16.22;45.28;99454.97;4995511;28;8920;-84
2022/09/03 05:27:33;;;;;;;;;2.00;2.00;;;;;16.31;45.38;99450.25;4994967;28;8983;-84
2022/09/03 05:30:01;;;;;;;;;0.25;0.25;;;;;16.35;44.71;99446.22;4995020;28;8944;-84
2022/09/03 05:32:29;;;;;;;;;4.00;3.50;;;;;16.39;44.81;99447.59;4995034;28;9558;-84
2022/09/03 05:34:57;;;;;;;;;3.50;3.25;;;;;16.48;45.24;99449.25;4995644;28;8972;-84
2022/09/03 05:37:25;;;;;;;;;3.00;3.00;;;;;16.60;44.68;99444.34;4995616;28;8836;-84
2022/09/03 05:39:53;;;;;;;;;3.00;3.00;;;;;16.70;44.97;99450.38;4994751;28;8840;-84
2022/09/03 05:42:21;;;;;;;;;1.00;1.00;;;;;16.81;44.19;99445.47;4995525;28;8828;-84
2022/09/03 05:44:50;;;;;;;;;3.00;2.50;;;;;16.91;44.66;99451.47;4995036;28;8857;-84
2022/09/03 05:47:17;;;;;;;;;3.00;3.00;;;;;16.99;44.38;99448.75;4994483;28;8917;-84
2022/09/03 05:49:45;;;;;;;;;3.75;3.75;;;;;17.09;43.88;99440.47;4995477;28;8844;-84
2022/09/03 05:52:13;;;;;;;;;3.00;3.00;;;;;17.21;44.27;99445.28;4995073;28;8841;-84
2022/09/03 05:54:41;;;;;;;;;1.00;1.00;;;;;17.33;44.06;99445.72;4994749;28;8844;-84
2022/09/03 05:57:09;;;;;;;;;3.00;1.00;;;;;17.46;44.00;99438.78;4995183;28;8870;-84
2022/09/03 05:59:36;;;;;;;;;3.00;1.40;;;;;17.56;43.49;99443.94;4995010;28;9517;-84
2022/09/03 06:02:04;;;;;;;;;3.00;3.00;;;;;17.66;43.02;99445.38;4995672;28;8824;-84
2022/09/03 06:04:32;;;;;;;;;1.00;1.00;;;;;17.77;43.53;99446.81;4995443;28;8852;-84
2022/09/03 06:07:00;;;;;;;;;0.80;0.80;;;;;17.85;43.58;99439.50;4995152;28;8832;-83
2022/09/03 06:09:28;;;;;;;;;3.00;3.00;;;;;17.95;43.13;99450.91;4995383;28;8867;-83
2022/09/03 06:11:56;;;;;;;;;1.00;1.00;;;;;18.04;43.01;99449.81;4994315;28;8829;-84
2022/09/03 06:14:26;;;;;;;;;3.25;3.25;;;;;18.15;43.30;99452.06;4994771;28;8847;-84
2022/09/03 06:16:55;;;;;;;;;3.75;3.50;;;;;18.24;42.98;99450.97;4995121;28;8924;-84
2022/09/03 06:19:23;;;;;;;;;2.20;2.20;;;;;18.34;43.15;99446.19;4993884;28;8818;-84
2022/09/03 06:21:51;;;;;;;;;1.80;1.80;;;;;18.41;42.49;99448.97;4994835;28;8818;-84
2022/09/03 06:24:18;;;;;;;;;1.00;1.00;;;;;18.50;42.31;99440.63;4995332;28;8898;-84
2022/09/03 06:26:47;;;;;;;;;3.00;3.00;;;;;18.60;42.75;99443.88;4995000;28;8865;-84
2022/09/03 06:29:15;;;;;;;;;3.00;3.00;;;;;18.71;42.82;99439.91;4995185;28;8842;-84
2022/09/03 06:31:43;;;;;;;;;0.80;0.80;;;;;18.84;42.14;99443.63;4994977;28;8959;-84
2022/09/03 06:34:11;;;;;;;;;3.00;3.00;;;;;19.30;42.02;99438.84;4994398;28;8826;-84
2022/09/03 06:36:41;;;;;;;;;2.00;2.00;;;;;19.57;41.09;99443.53;4994748;28;8830;-84
2022/09/03 06:39:08;;;;;;;;;3.00;3.00;;;;;19.66;41.10;99439.69;4994743;28;8969;-84
2022/09/03 06:41:36;;;;;;;;;2.20;2.20;;;;;19.69;41.05;99432.03;4995030;28;8956;-84
2022/09/03 06:44:04;;;;;;;;;1.00;1.00;;;;;19.75;41.04;99436.69;4994924;28;8823;-84
2022/09/03 06:46:33;;;;;;;;;1.40;1.40;;;;;19.81;41.23;99440.47;4994416;28;8810;-84
2022/09/03 06:49:01;;;;;;;;;2.20;2.20;;;;;19.90;40.95;99442.88;4994946;28;8845;-84
2022/09/03 06:51:29;;;;;;;;;1.60;1.60;;;;;19.99;40.68;99435.44;4994591;28;8829;-84
2022/09/03 06:53:57;;;;;;;;;3.20;2.00;;;;;20.07;41.17;99436.19;4994326;28;8849;-84
2022/09/03 06:56:26;;;;;;;;;1.00;1.00;;;;;20.16;41.06;99442.31;4994513;28;8822;-84
2022/09/03 06:58:53;;;;;;;;;2.00;2.00;;;;;20.25;41.12;99439.25;4995434;28;8965;-84
2022/09/03 07:01:21;;;;;;;;;3.20;3.20;;;;;20.34;40.62;99424.53;4997891;28;8822;-84
2022/09/03 07:03:49;;;;;;;;;2.00;2.00;;;;;20.48;40.65;99433.59;4997860;28;8834;-84
2022/09/03 07:06:18;;;;;;;;;2.00;2.00;;;;;20.60;40.62;99435.56;4997918;28;8817;-85
2022/09/03 07:08:46;;;;;;;;;4.80;3.60;;;;;20.72;40.65;99442.09;4998047;28;8879;-84
2022/09/03 07:11:13;;;;;;;;;3.20;1.80;;;;;20.87;40.53;99442.84;4998357;28;8849;-84
2022/09/03 07:13:41;;;;;;;;;1.40;1.40;;;;;21.01;40.07;99444.56;4997752;28;8853;-83
2022/09/03 07:16:09;;;;;;;;;4.80;4.80;;;;;21.13;39.74;99442.97;4998207;28;8948;-84
2022/09/03 07:18:37;;;;;;;;;2.00;2.00;;;;;21.24;39.92;99435.13;4997620;28;8837;-84
2022/09/03 07:21:05;;;;;;;;;4.00;4.00;;;;;21.36;40.07;99438.94;4997692;28;9628;-84
2022/09/03 07:23:33;;;;;;;;;2.80;2.80;;;;;21.45;39.73;99440.41;4997639;28;9637;-84
2022/09/03 07:26:01;;;;;;;;;2.00;2.00;;;;;21.55;39.79;99443.56;4998076;28;8958;-84
2022/09/03 07:28:28;;;;;;;;;3.20;2.00;;;;;21.64;39.39;99436.09;4997747;28;8872;-84
2022/09/03 07:30:56;;;;;;;;;1.00;1.00;;;;;21.75;39.68;99443.66;4997772;28;8863;-84
2022/09/03 07:33:24;;;;;;;;;1.00;1.00;;;;;21.85;39.42;99438.69;4997367;28;8848;-85
2022/09/03 07:35:52;;;;;;;;;2.00;2.00;;;;;21.94;39.17;99438.25;4997828;28;8982;-84
2022/09/03 07:38:19;;;;;;;;;4.00;3.60;;;;;22.05;39.11;99440.38;4997978;28;8836;-84
2022/09/03 07:40:47;;;;;;;;;2.00;2.00;;;;;22.17;38.91;99440.59;4998279;28;8828;-84
2022/09/03 07:43:15;;;;;;;;;1.80;1.80;;;;;22.23;38.89;99442.47;4997945;28;8974;-84
2022/09/03 07:45:45;;;;;;;;;2.00;2.00;;;;;22.25;38.99;99437.66;4996907;28;8983;-84
2022/09/03 07:48:13;;;;;;;;;2.40;2.00;;;;;22.24;39.40;99446.84;4997808;28;8947;-83
2022/09/03 07:50:40;;;;;;;;;2.00;2.00;;;;;22.28;39.22;99445.38;4998279;28;8876;-84
2022/09/03 07:53:08;;;;;;;;;4.00;4.00;;;;;22.31;39.19;99450.41;4998183;28;9509;-85
2022/09/03 07:55:36;;;;;;;;;4.20;4.00;;;;;22.36;39.02;99450.59;4997761;28;8863;-85
2022/09/03 07:58:03;;;;;;;;;3.60;3.60;;;;;22.43;39.30;99451.47;4996260;28;8941;-84
2022/09/03 08:00:32;;;;;;;;;4.00;3.60;;;;;22.47;39.19;99450.81;4996596;28;8856;-84
2022/09/03 08:03:04;;;;;;;;;1.80;1.80;;;;;22.53;38.99;99457.31;4997574;28;8868;-84
2022/09/03 08:05:32;;;;;;;;;4.00;4.00;;;;;22.60;39.12;99445.41;4997059;28;8833;-84
2022/09/03 08:08:00;;;;;;;;;4.40;4.40;;;;;22.70;38.53;99456.66;4997191;28;8970;-84
2022/09/03 08:10:31;;;;;;;;;3.20;2.00;;;;;22.81;38.68;99457.88;4995956;28;8848;-84
2022/09/03 08:12:59;;;;;;;;;4.00;4.00;;;;;22.87;38.27;99463.34;4996281;28;8975;-84
2022/09/03 08:15:27;;;;;;;;;1.00;1.00;;;;;22.90;38.56;99465.59;4996510;28;8848;-84
2022/09/03 08:17:54;;;;;;;;;2.80;2.80;;;;;22.90;38.84;99467.47;4997031;28;8829;-84
2022/09/03 08:20:30;;;;;;;;;4.00;4.00;;;;;22.86;38.86;99474.41;4996455;28;8868;-84
2022/09/03 08:22:58;;;;;;;;;2.00;2.00;;;;;22.79;38.91;99476.28;4995233;28;8954;-84
2022/09/03 08:25:25;;;;;;;;;2.80;2.80;;;;;22.74;38.63;99478.78;4996921;28;8854;-84
2022/09/03 08:27:54;;;;;;;;;3.60;3.60;;;;;22.75;38.98;99472.31;4996818;28;8853;-84
2022/09/03 08:30:23;;;;;;;;;2.80;2.80;;;;;22.76;38.67;99477.53;4996357;28;8851;-84
2022/09/03 08:32:51;;;;;;;;;4.00;4.00;;;;;22.79;38.57;99473.56;4996337;28;8860;-84
2022/09/03 08:35:20;;;;;;;;;3.20;3.20;;;;;22.84;38.49;99473.78;4996061;28;8914;-84
2022/09/03 08:37:50;;;;;;;;;5.00;5.00;;;;;22.91;38.88;99470.00;4996070;28;9575;-84
2022/09/03 08:40:23;;;;;;;;;2.80;2.80;;;;;23.01;38.47;99473.13;4996420;28;8978;-84
2022/09/03 08:42:50;;;;;;;;;4.20;4.00;;;;;23.11;38.11;99468.06;4995945;28;9021;-84
2022/09/03 08:45:18;;;;;;;;;1.80;1.80;;;;;23.22;38.60;99464.72;4995691;28;8832;-84
2022/09/03 08:47:46;;;;;;;;;1.00;1.00;;;;;23.32;38.55;99461.53;4996022;28;8986;-84
2022/09/03 08:50:14;;;;;;;;;3.40;3.40;;;;;23.41;37.75;99462.97;4995423;28;8982;-84
2022/09/03 08:52:47;;;;;;;;;5.00;4.20;;;;;23.48;38.38;99466.50;4995035;28;8848;-84
2022/09/03 08:55:15;;;;;;;;;2.00;2.00;;;;;23.51;38.21;99466.09;4995060;28;8845;-86
2022/09/03 08:57:43;;;;;;;;;4.20;4.00;;;;;23.57;37.81;99467.91;4995605;28;8865;-84
2022/09/03 09:00:11;;;;;;;;;3.00;3.00;;;;;23.65;37.99;99462.22;4995333;28;8962;-85
2022/09/03 09:02:38;;;;;;;;;4.20;4.20;;;;;23.67;38.18;99468.31;4994770;28;8975;-84
2022/09/03 09:05:06;;;;;;;;;2.80;2.80;;;;;23.66;37.67;99469.34;4996140;28;9506;-84
2022/09/03 09:07:40;;;;;;;;;5.00;5.00;;;;;23.78;37.96;99463.00;4996911;28;8832;-85
2022/09/03 09:10:08;;;;;;;;;3.20;3.20;;;;;23.96;37.36;99460.41;4997347;28;9502;-85
2022/09/03 09:12:35;;;;;;;;;5.40;5.40;;;;;24.20;37.32;99461.50;4996522;28;8939;-84
2022/09/03 09:15:13;;;;;;;;;4.40;4.40;;;;;24.52;36.82;99460.41;4996269;28;8974;-84
2022/09/03 09:17:41;;;;;;;;;3.40;3.40;;;;;24.82;36.86;99453.25;4996465;28;8844;-85
2022/09/03 09:20:09;;;;;;;;;5.00;3.40;;;;;25.01;36.55;99455.75;4996287;28;8845;-85
2022/09/03 09:22:37;;;;;;;;;3.80;3.00;;;;;25.16;35.88;99458.09;4996497;28;8955;-85
2022/09/03 09:25:04;;;;;;;;;2.40;2.40;;;;;25.25;36.05;99454.06;4996213;28;8825;-85
2022/09/03 09:27:32;;;;;;;;;6.00;5.00;;;;;25.36;35.63;99439.66;4996434;28;8824;-84
2022/09/03 09:30:00;;;;;;;;;5.00;5.00;;;;;25.47;36.03;99447.09;4995917;28;8907;-84
2022/09/03 09:32:30;;;;;;;;;5.00;4.20;;;;;25.62;35.99;99442.06;4996486;28;8856;-85
2022/09/03 09:34:58;;;;;;;;;2.20;2.20;;;;;25.72;36.04;99434.97;4996952;28;8978;-85
2022/09/03 09:37:26;;;;;;;;;5.20;5.00;;;;;25.84;35.79;99438.56;4997839;28;8875;-85
2022/09/03 09:39:54;;;;;;;;;5.20;5.00;;;;;25.86;35.34;99434.56;4996941;28;8852;-84
2022/09/03 09:42:22;;;;;;;;;5.00;3.80;;;;;25.87;35.33;99435.38;4996428;28;8860;-84
2022/09/03 09:44:50;;;;;;;;;4.60;4.60;;;;;25.75;36.10;99427.16;4996577;28;8849;-85
2022/09/03 09:47:18;;;;;;;;;5.60;5.20;;;;;25.73;35.56;99433.94;4997593;28;8957;-85
2022/09/03 09:49:46;;;;;;;;;5.20;5.20;;;;;25.79;35.43;99432.97;4997901;28;8859;-84
2022/09/03 09:52:14;;;;;;;;;6.40;6.40;;;;;25.91;35.39;99432.00;4997816;28;8867;-85
2022/09/03 09:54:42;;;;;;;;;5.00;5.00;;;;;26.15;35.47;99428.28;4998105;28;8883;-85
2022/09/03 09:57:09;;;;;;;;;6.00;6.00;;;;;26.65;34.92;99429.53;4997310;28;8821;-85
2022/09/03 09:59:37;;;;;;;;;4.60;4.60;;;;;27.30;34.23;99420.09;4998087;28;8848;-85
2022/09/03 10:02:05;;;;;;;;;5.20;4.20;;;;;28.19;33.32;99411.16;4996902;28;8828;-85
2022/09/03 10:04:33;;;;;;;;;4.80;4.00;;;;;29.02;32.16;99415.56;4997297;28;8998;-85
2022/09/03 10:07:00;;;;;;;;;5.80;4.40;;;;;29.89;31.39;99416.38;4996311;28;8860;-86
2022/09/03 10:09:29;;;;;;;;;4.00;4.00;;;;;30.54;30.84;99420.56;4996702;28;8836;-86
2022/09/03 10:11:58;;;;;;;;;3.60;3.60;;;;;31.11;30.31;99424.28;4997177;28;8865;-85
2022/09/03 10:14:26;;;;;;;;;2.40;2.40;;;;;31.74;29.37;99413.03;4996502;28;8909;-88
2022/09/03 10:16:54;;;;;;;;;3.40;3.40;;;;;32.05;29.14;99412.00;4996429;28;8845;-86
2022/09/03 10:19:22;;;;;;;;;4.00;4.00;;;;;32.51;28.56;99411.78;4999503;28;8844;-86
2022/09/03 10:21:50;;;;;;;;;4.40;4.20;;;;;32.50;28.80;99415.66;5003016;28;8935;-86
2022/09/03 10:24:18;;;;;;;;;5.20;5.00;;;;;31.82;29.92;99409.75;5004864;28;8858;-86
2022/09/03 10:26:45;;;;;;;;;5.00;5.00;;;;;31.24;30.66;99416.41;5002895;28;8852;-87
2022/09/03 10:29:14;;;;;;;;;5.00;5.00;;;;;30.77;30.84;99417.47;5004260;28;8947;-86
2022/09/03 10:31:42;;;;;;;;;2.00;2.00;;;;;30.31;31.65;99422.84;4998193;28;8940;-86
2022/09/03 10:34:10;;;;;;;;;5.20;5.20;;;;;29.78;32.04;99429.16;4997772;28;8825;-86
2022/09/03 10:36:38;;;;;;;;;4.00;4.00;;;;;29.26;33.24;99425.19;5000068;28;8994;-85
2022/09/03 10:39:06;;;;;;;;;5.40;5.40;;;;;28.89;33.59;99423.28;4999730;28;8829;-85
2022/09/03 10:41:34;;;;;;;;;4.20;4.20;;;;;29.20;33.26;99426.22;5000436;28;8852;-85
2022/09/03 10:44:01;;;;;;;;;5.00;5.00;;;;;30.09;31.50;99419.38;5000517;28;9493;-85
2022/09/03 10:46:30;;;;;;;;;4.40;4.40;;;;;30.94;30.86;99409.88;5000227;28;8832;-85
2022/09/03 10:48:57;;;;;;;;;7.20;6.60;;;;;31.78;29.70;99403.16;5000318;28;8852;-85
2022/09/03 10:51:25;;;;;;;;;5.00;4.80;;;;;32.41;29.30;99405.44;4999996;28;8855;-86
2022/09/03 10:53:54;;;;;;;;;6.80;6.00;;;;;32.91;29.00;99399.91;4999590;28;8844;-86
2022/09/03 10:56:23;;;;;;;;;5.40;5.40;;;;;33.33;27.92;99392.06;4999010;28;8840;-86
2022/09/03 10:58:51;;;;;;;;;5.00;5.00;;;;;33.60;27.85;99395.25;4998821;28;8860;-86
2022/09/03 11:01:20;;;;;;;;;6.80;6.40;;;;;33.44;28.26;99400.03;4998439;28;8825;-86
2022/09/03 11:03:48;;;;;;;;;5.00;5.00;;;;;32.77;29.00;99402.41;4999670;28;8844;-86
2022/09/03 11:06:18;;;;;;;;;5.00;5.00;;;;;31.96;30.21;99403.47;4999187;28;8954;-85
2022/09/03 11:08:45;;;;;;;;;6.00;6.00;;;;;31.20;30.94;99417.22;4999597;28;8914;-85
2022/09/03 11:11:13;;;;;;;;;6.20;6.00;;;;;31.03;31.21;99413.78;5000046;28;8824;-86
2022/09/03 11:13:42;;;;;;;;;6.00;6.00;;;;;31.04;31.23;99405.25;5001211;28;8840;-85
2022/09/03 11:16:11;;;;;;;;;5.00;4.20;;;;;31.55;30.63;99398.06;5000741;28;8828;-85
2022/09/03 11:18:39;;;;;;;;;8.00;7.40;;;;;32.13;29.70;99403.19;5000460;28;8975;-85
2022/09/03 11:21:09;;;;;;;;;6.80;6.00;;;;;32.21;29.43;99399.88;5000209;28;8932;-85
2022/09/03 11:23:39;;;;;;;;;7.60;7.00;;;;;31.90;29.84;99400.94;5000694;28;8848;-85
2022/09/03 11:26:11;;;;;;;;;5.20;5.00;;;;;31.57;30.70;99406.91;4998719;28;9540;-87
2022/09/03 11:28:40;;;;;;;;;6.80;6.80;;;;;31.12;31.09;99420.44;4997832;28;8840;-87
2022/09/03 11:31:12;;;;;;;;;5.60;5.60;;;;;30.64;31.83;99417.09;4998824;28;8966;-86
2022/09/03 11:33:40;;;;;;;;;6.60;5.80;;;;;30.26;32.18;99409.88;4998924;28;8848;-87
2022/09/03 11:36:08;;;;;;;;;4.40;4.40;;;;;30.39;32.01;99405.88;4998710;28;8856;-88
2022/09/03 11:38:37;;;;;;;;;6.20;6.00;;;;;30.28;31.68;99404.97;4997878;28;8939;-86
2022/09/03 11:41:05;;;;;;;;;6.80;6.20;;;;;29.84;32.32;99413.56;4998566;28;8860;-87
2022/09/03 11:43:33;;;;;;;;;6.80;6.80;;;;;29.48;33.49;99409.56;4998452;28;8847;-87
2022/09/03 11:46:02;;;;;;;;;4.60;4.60;;;;;29.23;33.10;99417.50;4997885;28;8941;-86